createdAt,value
2023-03-07T00:02:11.236Z,72.23
2023-03-07T00:04:37.887Z,72.11
2023-03-07T00:07:04.488Z,72.30
2023-03-07T00:09:31.023Z,71.99
2023-03-07T00:11:57.574Z,72.15
2023-03-07T00:14:24.125Z,72.94
2023-03-07T00:16:51.722Z,72.12
2023-03-07T00:19:18.886Z,72.85
2023-03-07T00:21:45.750Z,72.49
2023-03-07T00:24:12.362Z,73.14
2023-03-07T00:26:39.844Z,72.58
2023-03-07T00:29:08.190Z,73.08
2023-03-07T00:31:35.322Z,73.03
2023-03-07T00:34:02.519Z,73.16
2023-03-07T00:36:29.126Z,73.18
2023-03-07T00:38:55.696Z,72.71
2023-03-07T00:41:25.368Z,72.75
2023-03-07T00:43:53.207Z,72.75
2023-03-07T00:46:21.555Z,73.31
2023-03-07T00:48:48.266Z,73.01
2023-03-07T00:51:18.283Z,73.30
2023-03-07T00:53:45.080Z,73.61
2023-03-07T00:56:17.858Z,72.87
2023-03-07T00:58:45.055Z,72.85
2023-03-07T01:01:14.199Z,73.03
2023-03-07T01:03:42.070Z,73.34
2023-03-07T01:06:13.758Z,73.12
2023-03-07T01:08:40.382Z,73.17
2023-03-07T01:11:07.878Z,72.88
2023-03-07T01:13:35.420Z,73.05
2023-03-07T01:16:23.758Z,73.08
2023-03-07T01:18:53.864Z,73.80
2023-03-07T01:24:00.007Z,73.19
2023-03-07T01:26:29.734Z,73.09
2023-03-07T01:28:59.060Z,73.74
2023-03-07T01:31:26.768Z,73.89
2023-03-07T01:33:54.245Z,73.39
2023-03-07T01:39:02.837Z,73.59
2023-03-07T01:41:32.249Z,73.01
2023-03-07T01:44:02.471Z,73.53
2023-03-07T01:46:50.223Z,73.58
2023-03-07T01:52:09.077Z,73.82
2023-03-07T01:54:40.384Z,74.03
2023-03-07T01:57:07.895Z,73.97
2023-03-07T01:59:40.485Z,74.09
2023-03-07T02:02:12.588Z,73.70
2023-03-07T02:04:47.094Z,73.26
2023-03-07T02:07:13.937Z,74.32
2023-03-07T02:09:41.576Z,73.98
2023-03-07T02:12:08.929Z,74.12
2023-03-07T02:14:35.566Z,74.04
2023-03-07T02:17:04.249Z,74.25
2023-03-07T02:20:10.585Z,73.95
2023-03-07T02:22:37.275Z,73.84
2023-03-07T02:27:41.283Z,74.29
2023-03-07T02:30:08.862Z,74.46
2023-03-07T02:32:35.527Z,74.43
2023-03-07T02:35:02.108Z,74.54
2023-03-07T02:40:08.265Z,73.72
2023-03-07T02:42:39.046Z,74.32
2023-03-07T02:45:10.316Z,73.71
2023-03-07T02:47:37.006Z,74.95
2023-03-07T02:50:04.744Z,73.57
2023-03-07T02:52:31.435Z,74.84
2023-03-07T02:54:58.679Z,74.65
2023-03-07T02:57:25.262Z,73.96
2023-03-07T02:59:51.806Z,74.74
2023-03-07T03:02:18.373Z,73.89
2023-03-07T03:04:45.039Z,73.92
2023-03-07T03:07:11.811Z,74.65
2023-03-07T03:09:38.329Z,75.04
2023-03-07T03:12:05.110Z,74.72
2023-03-07T03:14:32.532Z,74.61
2023-03-07T03:16:59.101Z,73.83
2023-03-07T03:19:25.827Z,75.00
2023-03-07T03:21:52.363Z,74.88
2023-03-07T03:24:18.882Z,73.88
2023-03-07T03:26:45.404Z,74.17
2023-03-07T03:29:11.991Z,74.69
2023-03-07T03:31:38.551Z,74.73
2023-03-07T03:34:05.734Z,74.48
2023-03-07T03:36:32.408Z,75.18
2023-03-07T03:38:59.950Z,74.27
2023-03-07T03:41:26.764Z,73.98
2023-03-07T03:43:53.924Z,74.55
2023-03-07T03:46:20.574Z,74.74
2023-03-07T03:48:55.309Z,74.57
2023-03-07T03:51:23.598Z,73.83
2023-03-07T03:53:50.991Z,74.08
2023-03-07T03:56:21.172Z,74.35
2023-03-07T03:58:49.892Z,74.04
2023-03-07T04:01:16.501Z,73.96
2023-03-07T04:03:45.757Z,74.24
2023-03-07T04:06:14.978Z,74.16
2023-03-07T04:08:41.942Z,73.94
2023-03-07T04:11:09.024Z,74.04
2023-03-07T04:13:36.565Z,74.92
2023-03-07T04:16:03.574Z,75.01
2023-03-07T04:18:30.151Z,73.98
2023-03-07T04:20:57.262Z,75.30
2023-03-07T04:23:24.751Z,74.19
2023-03-07T04:25:55.706Z,74.10
2023-03-07T04:28:24.605Z,75.12
2023-03-07T04:30:52.620Z,74.79
2023-03-07T04:33:20.179Z,75.40
2023-03-07T04:35:46.797Z,75.04
2023-03-07T04:38:15.121Z,74.71
2023-03-07T04:40:41.673Z,74.11
2023-03-07T04:43:08.414Z,74.62
2023-03-07T04:45:37.955Z,74.34
2023-03-07T04:48:04.822Z,74.40
2023-03-07T04:50:31.664Z,74.96
2023-03-07T04:52:58.197Z,74.45
2023-03-07T04:55:24.810Z,75.02
2023-03-07T04:57:52.108Z,74.33
2023-03-07T05:00:20.114Z,75.01
2023-03-07T05:02:48.554Z,75.14
2023-03-07T05:05:15.941Z,74.61
2023-03-07T05:07:42.905Z,75.18
2023-03-07T05:10:10.150Z,74.99
2023-03-07T05:12:36.788Z,75.13
2023-03-07T05:15:03.559Z,75.54
2023-03-07T05:17:31.399Z,74.66
2023-03-07T05:19:57.959Z,74.29
2023-03-07T05:22:24.595Z,74.25
2023-03-07T05:24:51.116Z,74.47
2023-03-07T05:27:17.728Z,74.46
2023-03-07T05:29:44.327Z,74.78
2023-03-07T05:32:11.329Z,74.32
2023-03-07T05:34:39.074Z,74.82
2023-03-07T05:37:05.659Z,75.21
2023-03-07T05:39:32.176Z,74.98
2023-03-07T05:41:58.731Z,75.74
2023-03-07T05:44:25.262Z,75.84
2023-03-07T05:46:51.837Z,75.71
2023-03-07T05:49:18.773Z,75.35
2023-03-07T05:51:45.343Z,74.92
2023-03-07T05:54:11.869Z,75.13
2023-03-07T05:56:38.398Z,75.63
2023-03-07T05:59:07.691Z,75.53
2023-03-07T06:01:34.621Z,75.11
2023-03-07T06:04:01.238Z,74.69
2023-03-07T06:06:27.793Z,75.57
2023-03-07T06:08:54.415Z,75.13
2023-03-07T06:11:21.168Z,75.81
2023-03-07T06:13:47.745Z,75.63
2023-03-07T06:16:14.400Z,75.55
2023-03-07T06:18:41.134Z,75.00
2023-03-07T06:21:09.185Z,76.03
2023-03-07T06:23:36.811Z,74.49
2023-03-07T06:26:04.066Z,75.26
2023-03-07T06:28:32.786Z,75.77
2023-03-07T06:30:59.837Z,74.90
2023-03-07T06:33:26.546Z,75.50
2023-03-07T06:35:53.212Z,75.66
2023-03-07T06:38:19.822Z,75.54
2023-03-07T06:40:55.307Z,74.98
2023-03-07T06:43:21.873Z,75.33
2023-03-07T06:45:48.429Z,76.07
2023-03-07T06:48:14.969Z,75.06
2023-03-07T06:50:41.531Z,74.84
2023-03-07T06:53:08.036Z,75.82
2023-03-07T06:55:34.608Z,75.01
2023-03-07T06:58:01.124Z,75.54
2023-03-07T07:00:27.825Z,74.91
2023-03-07T07:02:54.559Z,74.95
2023-03-07T07:05:21.287Z,74.59
2023-03-07T07:07:47.810Z,74.60
2023-03-07T07:10:14.385Z,74.16
2023-03-07T07:12:41.138Z,74.08
2023-03-07T07:15:08.424Z,74.45
2023-03-07T07:17:36.536Z,74.98
2023-03-07T07:20:05.440Z,73.86
2023-03-07T07:22:32.761Z,73.95
2023-03-07T07:24:59.358Z,74.71
2023-03-07T07:27:26.165Z,74.44
2023-03-07T07:29:52.742Z,73.62
2023-03-07T07:32:19.626Z,74.50
2023-03-07T07:34:46.261Z,74.43
2023-03-07T07:37:12.936Z,73.33
2023-03-07T07:39:43.658Z,73.32
2023-03-07T07:42:11.512Z,73.47
2023-03-07T07:44:38.066Z,72.75
2023-03-07T07:47:04.761Z,73.21
2023-03-07T07:49:31.312Z,73.94
2023-03-07T07:51:57.879Z,73.44
2023-03-07T07:54:24.648Z,73.51
2023-03-07T07:56:51.289Z,72.59
2023-03-07T07:59:18.062Z,73.33
2023-03-07T08:01:44.926Z,73.87
2023-03-07T08:04:11.621Z,72.54
2023-03-07T08:06:38.197Z,73.58
2023-03-07T08:09:05.615Z,73.04
2023-03-07T08:11:32.230Z,72.94
2023-03-07T08:13:59.197Z,73.03
2023-03-07T08:16:26.178Z,72.21
2023-03-07T08:18:56.855Z,72.60
2023-03-07T08:21:25.028Z,72.88
2023-03-07T08:23:52.049Z,71.77
2023-03-07T08:26:18.653Z,71.98
2023-03-07T08:28:45.756Z,72.06
2023-03-07T08:31:15.642Z,71.45
2023-03-07T08:33:42.864Z,70.57
2023-03-07T08:36:09.811Z,70.49
2023-03-07T08:38:36.390Z,70.49
2023-03-07T08:41:04.995Z,70.11
2023-03-07T08:43:33.164Z,69.91
2023-03-07T08:46:00.282Z,70.27
2023-03-07T08:48:27.098Z,70.30
2023-03-07T08:50:55.260Z,70.17
2023-03-07T08:53:22.496Z,70.72
2023-03-07T08:55:49.315Z,70.74
2023-03-07T08:58:15.952Z,71.00
2023-03-07T09:00:42.719Z,71.01
2023-03-07T09:03:09.285Z,70.60
2023-03-07T09:05:39.353Z,70.80
2023-03-07T09:08:07.236Z,70.41
2023-03-07T09:10:35.152Z,69.79
2023-03-07T09:13:01.756Z,68.28
2023-03-07T09:15:28.362Z,67.17
2023-03-07T09:17:54.973Z,64.85
2023-03-07T09:20:21.578Z,64.15
2023-03-07T09:22:48.194Z,63.19
2023-03-07T09:25:14.828Z,61.19
2023-03-07T09:27:41.470Z,60.91
2023-03-07T09:30:08.773Z,59.66
2023-03-07T09:32:35.471Z,60.65
2023-03-07T09:35:02.043Z,61.36
2023-03-07T09:37:28.716Z,60.77
2023-03-07T09:39:55.264Z,58.88
2023-03-07T09:42:36.704Z,59.25
2023-03-07T09:45:30.066Z,58.70
2023-03-07T09:50:59.375Z,55.40
2023-03-07T09:53:40.156Z,52.99
2023-03-07T09:56:14.828Z,53.08
2023-03-07T09:58:47.251Z,51.35
2023-03-07T10:01:15.670Z,51.54
2023-03-07T10:03:54.567Z,53.15
2023-03-07T10:06:28.897Z,53.17
2023-03-07T10:08:56.158Z,53.70
2023-03-07T10:11:43.999Z,53.59
2023-03-07T10:14:39.937Z,52.97
2023-03-07T10:19:52.932Z,52.11
2023-03-07T10:25:27.111Z,52.16
2023-03-07T10:28:01.314Z,53.54
2023-03-07T10:30:32.631Z,54.15
2023-03-07T10:33:01.335Z,54.05
2023-03-07T10:35:40.748Z,54.25
2023-03-07T10:38:34.598Z,53.21
2023-03-07T10:41:11.531Z,54.73
2023-03-07T10:43:39.466Z,55.33
2023-03-07T10:48:48.763Z,55.36
2023-03-07T10:53:56.908Z,55.22
2023-03-07T10:56:23.672Z,55.53
2023-03-07T10:59:10.051Z,55.57
2023-03-07T11:01:39.290Z,55.93
2023-03-07T11:04:19.508Z,56.51
2023-03-07T11:07:01.812Z,56.45
2023-03-07T11:09:31.651Z,57.16
2023-03-07T11:12:20.071Z,57.15
2023-03-07T11:14:51.700Z,57.25
2023-03-07T11:19:57.943Z,57.02
2023-03-07T11:25:26.496Z,56.91
2023-03-07T11:27:55.629Z,57.96
2023-03-07T11:52:46.840Z,56.57
2023-03-07T12:20:55.375Z,56.20
2023-03-07T12:23:33.871Z,56.77
2023-03-07T12:26:06.642Z,56.53
2023-03-07T12:28:49.187Z,56.82
2023-03-07T12:31:36.983Z,56.82
2023-03-07T12:37:11.280Z,56.58
2023-03-07T12:40:00.990Z,55.57
2023-03-07T12:42:53.755Z,55.25
2023-03-07T12:45:25.446Z,55.58
2023-03-07T12:50:39.200Z,55.95
2023-03-07T12:56:25.956Z,54.77
2023-03-07T13:01:33.752Z,54.81
2023-03-07T13:06:44.823Z,54.69
2023-03-07T13:09:21.657Z,54.73
2023-03-07T13:12:08.007Z,55.61
2023-03-07T13:14:40.817Z,55.13
2023-03-07T13:23:21.509Z,56.08
2023-03-07T13:25:56.220Z,54.94
2023-03-07T13:28:42.542Z,55.39
2023-03-07T13:33:52.626Z,56.04
2023-03-07T13:39:38.737Z,54.09
2023-03-07T13:42:25.203Z,55.98
2023-03-07T13:44:51.818Z,54.51
2023-03-07T13:47:45.755Z,54.68
2023-03-07T13:55:58.979Z,54.07
2023-03-07T13:58:32.972Z,54.05
2023-03-07T14:01:04.015Z,55.06
2023-03-07T14:03:37.306Z,52.82
2023-03-07T14:06:17.982Z,51.95
2023-03-07T14:08:46.708Z,52.94
2023-03-07T14:11:23.262Z,51.27
2023-03-07T14:22:05.551Z,52.13
2023-03-07T14:28:19.841Z,51.71
2023-03-07T14:31:06.116Z,51.70
2023-03-07T14:36:20.261Z,49.59
2023-03-07T14:38:48.608Z,50.48
2023-03-07T14:41:46.081Z,51.30
2023-03-07T14:49:51.477Z,52.28
2023-03-07T14:52:30.482Z,52.00
2023-03-07T14:55:01.918Z,52.45
2023-03-07T14:57:49.444Z,50.36
2023-03-07T15:03:08.586Z,50.86
2023-03-07T15:08:20.090Z,51.81
2023-03-07T15:10:51.551Z,51.83
2023-03-07T15:13:33.446Z,49.90
2023-03-07T15:16:04.922Z,51.07
2023-03-07T15:18:40.046Z,51.34
2023-03-07T15:21:08.672Z,51.82
2023-03-07T15:23:35.338Z,50.56
2023-03-07T15:26:05.251Z,51.02
2023-03-07T15:28:36.023Z,50.27
2023-03-07T15:31:03.226Z,52.09
2023-03-07T15:33:32.188Z,50.28
2023-03-07T15:38:46.879Z,52.24
2023-03-07T15:41:35.998Z,51.82
2023-03-07T15:44:04.696Z,52.42
2023-03-07T15:46:32.857Z,52.15
2023-03-07T15:48:59.487Z,51.28
2023-03-07T15:51:34.286Z,51.36
2023-03-07T15:54:04.362Z,51.58
2023-03-07T15:56:36.318Z,51.15
2023-03-07T15:59:07.442Z,50.75
2023-03-07T16:01:34.091Z,52.11
2023-03-07T16:04:04.035Z,52.96
2023-03-07T16:09:14.777Z,53.04
2023-03-07T16:11:42.327Z,53.54
2023-03-07T16:14:28.856Z,52.74
2023-03-07T16:16:57.644Z,53.67
2023-03-07T16:19:24.773Z,53.67
2023-03-07T16:21:51.408Z,53.03
2023-03-07T16:24:17.911Z,54.22
2023-03-07T16:26:46.159Z,54.31
2023-03-07T16:29:18.290Z,53.73
2023-03-07T16:31:45.205Z,54.56
2023-03-07T16:34:18.087Z,54.39
2023-03-07T16:36:44.666Z,53.97
2023-03-07T16:39:12.187Z,53.94
2023-03-07T16:41:42.644Z,55.41
2023-03-07T16:44:15.197Z,54.41
2023-03-07T16:46:44.655Z,55.54
2023-03-07T16:49:16.234Z,54.98
2023-03-07T16:51:42.738Z,55.21
2023-03-07T16:54:09.442Z,55.75
2023-03-07T16:56:40.868Z,54.53
2023-03-07T16:59:08.476Z,55.86
2023-03-07T17:01:35.296Z,55.16
2023-03-07T17:04:01.957Z,55.65
2023-03-07T17:06:38.951Z,55.45
2023-03-07T17:09:10.165Z,56.02
2023-03-07T17:11:38.702Z,55.37
2023-03-07T17:14:08.610Z,55.25
2023-03-07T17:16:39.786Z,55.96
2023-03-07T17:19:08.000Z,55.42
2023-03-07T17:21:34.537Z,56.22
2023-03-07T17:24:01.041Z,56.12
2023-03-07T17:26:32.879Z,56.29
2023-03-07T17:29:04.972Z,56.50
2023-03-07T17:31:31.559Z,56.30
2023-03-07T17:33:58.154Z,56.50
2023-03-07T17:36:24.714Z,56.22
2023-03-07T17:38:51.761Z,56.30
2023-03-07T17:41:18.294Z,56.61
2023-03-07T17:43:44.857Z,56.77
2023-03-07T17:46:12.182Z,56.53
2023-03-07T17:48:38.808Z,56.93
2023-03-07T17:51:09.579Z,56.81
2023-03-07T17:53:37.828Z,57.29
2023-03-07T17:56:10.158Z,56.98
2023-03-07T17:58:38.499Z,56.54
2023-03-07T18:01:08.314Z,57.49
2023-03-07T18:03:35.332Z,56.79
2023-03-07T18:06:01.852Z,58.09
2023-03-07T18:08:28.768Z,57.29
2023-03-07T18:11:01.775Z,56.91
2023-03-07T18:13:28.292Z,56.93
2023-03-07T18:15:57.218Z,57.07
2023-03-07T18:18:24.063Z,57.29
2023-03-07T18:23:42.989Z,57.99
2023-03-07T18:26:13.762Z,56.88
2023-03-07T18:28:43.234Z,57.01
2023-03-07T18:31:14.357Z,57.77
2023-03-07T18:33:41.882Z,57.05
2023-03-07T18:36:12.746Z,57.36
2023-03-07T18:38:39.632Z,57.72
2023-03-07T18:41:10.467Z,57.62
2023-03-07T18:43:37.596Z,57.90
2023-03-07T18:46:06.379Z,57.72
2023-03-07T18:48:32.938Z,58.32
2023-03-07T18:51:02.385Z,59.15
2023-03-07T18:53:29.174Z,57.73
2023-03-07T18:55:56.155Z,58.31
2023-03-07T18:58:22.976Z,57.71
2023-03-07T19:00:49.949Z,58.27
2023-03-07T19:03:16.665Z,57.93
2023-03-07T19:05:45.922Z,57.66
2023-03-07T19:08:12.885Z,58.18
2023-03-07T19:10:39.597Z,57.90
2023-03-07T19:13:07.123Z,58.19
2023-03-07T19:15:34.270Z,58.33
2023-03-07T19:18:00.960Z,59.04
2023-03-07T19:20:27.710Z,58.32
2023-03-07T19:22:54.791Z,59.00
2023-03-07T19:25:21.484Z,58.89
2023-03-07T19:27:48.130Z,58.64
2023-03-07T19:30:15.391Z,59.46
2023-03-07T19:32:41.972Z,58.26
2023-03-07T19:35:08.697Z,58.72
2023-03-07T19:37:36.254Z,59.92
2023-03-07T19:40:02.835Z,59.65
2023-03-07T19:42:29.432Z,58.76
2023-03-07T19:44:56.127Z,59.39
2023-03-07T19:47:23.202Z,58.67
2023-03-07T19:49:49.723Z,59.10
2023-03-07T19:52:16.514Z,59.61
2023-03-07T19:54:43.056Z,58.49
2023-03-07T19:57:11.763Z,59.42
2023-03-07T19:59:38.302Z,58.45
2023-03-07T20:02:04.826Z,59.48
2023-03-07T20:04:31.355Z,59.09
2023-03-07T20:06:58.028Z,58.77
2023-03-07T20:09:24.562Z,59.76
2023-03-07T20:11:51.192Z,59.57
2023-03-07T20:14:17.760Z,59.13
2023-03-07T20:16:44.291Z,59.58
2023-03-07T20:19:11.021Z,58.96
2023-03-07T20:21:37.668Z,59.92
2023-03-07T20:24:04.813Z,59.72
2023-03-07T20:26:34.701Z,59.51
2023-03-07T20:29:03.873Z,60.36
2023-03-07T20:31:30.527Z,60.10
2023-03-07T20:33:59.052Z,60.29
2023-03-07T20:36:30.440Z,60.25
2023-03-07T20:38:59.191Z,59.55
2023-03-07T20:41:29.111Z,60.45
2023-03-07T20:43:59.575Z,59.49
2023-03-07T20:46:27.080Z,60.34
2023-03-07T20:48:54.902Z,59.93
2023-03-07T20:51:23.867Z,60.65
2023-03-07T20:56:30.016Z,60.25
2023-03-07T20:58:57.629Z,60.17
2023-03-07T21:01:26.692Z,60.79
2023-03-07T21:03:54.090Z,61.00
2023-03-07T21:06:21.275Z,60.95
2023-03-07T21:08:48.221Z,60.81
2023-03-07T21:11:17.150Z,61.25
2023-03-07T21:13:45.466Z,60.97
2023-03-07T21:16:15.583Z,60.95
2023-03-07T21:18:42.520Z,60.88
2023-03-07T21:21:12.199Z,60.80
2023-03-07T21:23:39.285Z,60.98
2023-03-07T21:26:09.822Z,61.22
2023-03-07T21:28:37.007Z,61.81
2023-03-07T21:31:07.826Z,61.03
2023-03-07T21:33:35.759Z,61.06
2023-03-07T21:36:03.877Z,61.77
2023-03-07T21:38:31.424Z,61.95
2023-03-07T21:40:58.414Z,61.80
2023-03-07T21:43:25.039Z,61.34
2023-03-07T21:45:52.239Z,61.04
2023-03-07T21:48:19.824Z,61.53
2023-03-07T21:50:48.473Z,61.05
2023-03-07T21:53:15.411Z,61.31
2023-03-07T21:55:53.469Z,61.93
2023-03-07T21:58:21.297Z,61.43
2023-03-07T22:00:48.691Z,61.58
2023-03-07T22:03:15.593Z,61.60
2023-03-07T22:05:42.147Z,61.42
2023-03-07T22:08:08.803Z,61.30
2023-03-07T22:10:35.390Z,62.03
2023-03-07T22:13:02.054Z,61.99
2023-03-07T22:15:28.767Z,61.80
2023-03-07T22:17:55.716Z,61.48
2023-03-07T22:20:22.376Z,61.62
2023-03-07T22:22:48.917Z,61.73
2023-03-07T22:25:15.599Z,61.96
2023-03-07T22:27:43.579Z,61.46
2023-03-07T22:30:10.937Z,62.00
2023-03-07T22:32:37.676Z,61.88
2023-03-07T22:35:04.437Z,62.18
2023-03-07T22:37:30.967Z,62.15
2023-03-07T22:39:57.479Z,61.77
2023-03-07T22:42:24.012Z,61.91
2023-03-07T22:44:50.544Z,62.47
2023-03-07T22:47:17.151Z,62.39
2023-03-07T22:49:43.670Z,62.33
2023-03-07T22:52:10.309Z,62.07
2023-03-07T22:54:39.363Z,62.48
2023-03-07T22:57:05.911Z,62.61
2023-03-07T22:59:33.154Z,62.59
2023-03-07T23:01:59.678Z,62.52
2023-03-07T23:04:27.132Z,62.39
2023-03-07T23:06:53.788Z,62.65
2023-03-07T23:09:20.310Z,62.46
2023-03-07T23:11:48.275Z,62.47
2023-03-07T23:14:15.474Z,62.43
2023-03-07T23:16:42.488Z,62.69
2023-03-07T23:19:09.174Z,62.30
2023-03-07T23:21:35.859Z,62.92
2023-03-07T23:24:03.409Z,62.47
2023-03-07T23:26:33.069Z,62.68
2023-03-07T23:28:59.671Z,63.14
2023-03-07T23:31:30.000Z,63.18
2023-03-07T23:33:58.408Z,63.11
2023-03-07T23:36:27.029Z,62.41
2023-03-07T23:38:54.117Z,63.25
2023-03-07T23:41:21.560Z,62.76
2023-03-07T23:43:53.258Z,62.89
2023-03-07T23:46:20.572Z,63.31
2023-03-07T23:48:47.243Z,63.07
2023-03-07T23:51:13.811Z,63.06
2023-03-07T23:53:40.622Z,63.02
2023-03-07T23:56:08.685Z,63.10
2023-03-07T23:58:35.733Z,63.08
